AirNav   ATP
 
 1070 users online  

I95 Hardin County Airport
Kenton, Ohio, USA

GOING TO KENTON?


FAA INFORMATION EFFECTIVE 07 DECEMBER 2017

Location

FAA Identifier: I95
Lat/Long: 40-36-36.3000N / 083-38-39.3000W
40-36.605000N / 083-38.655000W
40.6100833 / -83.6442500
(estimated)
Elevation: 1028.5 ft. / 313.5 m (surveyed)
Variation: 06W (2010)
From city: 3 miles SW of KENTON, OH
Time zone: UTC -5 (UTC -4 during Daylight Saving Time)
Zip code: 43326

Airport Operations

Airport use: Open to the public
Activation date: 07/1968
Control tower: no
ARTCC: INDIANAPOLIS CENTER
FSS: DAYTON FLIGHT SERVICE STATION
NOTAMs facility: DAY (NOTAM-D service available)
Attendance: SAT-SUN 0900-1700, ALL MON-FRI 0900-1800
UNATND MAJ. HOL.
Pattern altitude: 2028.5 ft. MSL
Wind indicator: lighted
Segmented circle: no
Lights: ACTVT MIRL RY 04/22 - CTAF.
Beacon: white-green (lighted land airport)
Operates sunset to sunrise.

Airport Communications

CTAF/UNICOM: 122.8
COLUMBUS APPROACH: 118.425
COLUMBUS DEPARTURE: 118.425
WX AWOS-3 at EDJ (16 nm SW): 118.075 (937-599-4654)
WX ASOS at AOH (18 nm W): 128.725 (419-224-6098)

Nearby radio navigation aids

VOR radial/distance  VOR name  Freq  Var
FBCr168/21.3FLAG CITY VORTAC108.2002W
BUDr274/(26.4)BUCKEYE VOR109.8005W
RODr048/26.6ROSEWOOD VORTAC117.5005W

 
NDB name  Hdg/Dist  Freq  Var  ID
TIFFIN219/35.026905WTII - .. ..

Airport Services

Fuel available: 100LL JET-A1+
Parking: hangars and tiedowns
Airframe service: MAJOR
Powerplant service: MAJOR
Bottled oxygen: NONE
Bulk oxygen: NONE

Runway Information

Runway 4/22

Dimensions: 4797 x 75 ft. / 1462 x 23 m
Surface: asphalt, in good condition
Weight bearing capacity: 
Single wheel: 19.0
Runway edge lights: medium intensity
RUNWAY 4  RUNWAY 22
Latitude: 40-36.301567N40-36.909617N
Longitude: 083-38.986617W083-38.324817W
Elevation: 1028.5 ft.1003.2 ft.
Gradient: 0.7%0.7%
Traffic pattern: leftleft
Runway heading: 046 magnetic, 040 true226 magnetic, 220 true
Markings: nonprecision, in good conditionnonprecision, in good condition
Runway end identifier lights: nono
Touchdown point: yes, no lightsyes, no lights
Obstructions: 87 ft. tree, 1412 ft. from runway, 160 ft. right of centerline, 13:1 slope to clear
ALSO 64 FT. TREES, 1106 FT. DSTC. 0 FT B, APCH RATIO 14:1.
15 ft. road, 201 ft. from runway, 215 ft. left of centerline
15 FT TWY 0-200 FT FM RY END 220-250 FT R.

Airport Ownership and Management from official FAA records

Ownership: Publicly-owned
Owner: HARDIN CO ARPT AUTH
13177 COUNTY RD 130
KENTON, OH 43326
Phone 419-674-2222
Manager: ED MCCORMICK
13975 CO RD 135
KENTON, OH 43326
Phone 419-673-9542

Airport Operational Statistics

Aircraft based on the field: 22
Single engine airplanes: 19
Multi engine airplanes: 2
Ultralights: 1
    
Aircraft operations: avg 126/week *
56% local general aviation
34% transient general aviation
10% air taxi
<1% military
* for 12-month period ending 04 September 2016

Additional Remarks

DEER & BIRDS ON & INVOF ARPT.
FOR CD CTC COLUMBUS APCH AT 614-338-8537.

Instrument Procedures

NOTE: All procedures below are presented as PDF files. If you need a reader for these files, you should download the free Adobe Reader.

NOT FOR NAVIGATION. Please procure official charts for flight.
FAA instrument procedures published for use between 7 December 2017 at 0901Z and 4 January 2018 at 0900Z.

 
IAPs - Instrument Approach Procedures
RNAV (GPS) RWY 04   download (200KB)
RNAV (GPS) RWY 22   download (166KB)
NOTE: Special Take-Off Minimums/Departure Procedures apply   download (164KB)

Other nearby airports with instrument procedures:

KEDJ - Bellefontaine Regional Airport (16 nm SW)
KAOH - Lima Allen County Airport (18 nm W)
5G7 - Bluffton Airport (19 nm NW)
56D - Wyandot County Airport (22 nm NE)
KFDY - Findlay Airport (24 nm N)
 
Loc | Ops | Rwys | IFR | FBO | Links
Com | Nav | Svcs | Stats | Notes


 
Area around I95 (Hardin County Airport)
 
Road maps at: MapQuest Bing Google
 
Aerial photo
WARNING: Photo may not be current or correct
Aerial photo of I95 (Hardin County Airport)
Photo taken 23-Aug-2016
looking northeast

Do you have a better or more recent aerial photo of Hardin County Airport that you would like to share? If so, please send us your photo.

 
Sectional chart

 
Airport distance calculator
Flying to Hardin County Airport? Find the distance to fly.

From to I95

Sunrise and sunset
Times for 18-Dec-2017
 Local
(UTC-5)
 Zulu
(UTC)
Morning civil twilight07:2312:23
Sunrise07:5412:54
Sunset17:0822:08
Evening civil twilight17:3922:39

Current date and time
Zulu (UTC)  18-Dec-2017 13:15:21
Local (UTC-5)  18-Dec-2017 08:15:21
 
METAR
KEDJ 
16nm SW 
181255Z AUTO 22009KT 5SM BKN004 03/03 A3002 RMK AO1
KAOH 
18nm W 
181305Z AUTO 21010KT 3SM BR OVC004 03/03 A3001 RMK AO2 T00330033
KFDY 
24nm N 
181253Z AUTO 20010KT 6SM BR OVC009 04/02 A2999 RMK AO2 SLP160 T00390017
KMNN 
26nm E 
181053Z AUTO 19005KT 6SM BR OVC080 02/01 A3003 RMK AO2 SLP179 T00220006 $
KMRT 
27nm SE 
181255Z AUTO 20008KT 3SM OVC005 03/03 A3004 RMK AO2 T00320025
KOWX 
30nm NW 
181255Z AUTO 21009KT 5SM OVC008 02/01 A3002 RMK AO1
KAXV 
31nm W 
181255Z AUTO 20007KT 2SM BR OVC003 03/03 A3002 RMK AO2
KDLZ 
31nm SE 
181255Z AUTO 00000KT 4SM BR OVC006 03/03 A3004 RMK AO2
TAF
KFDY 
24nm N 
181123Z 1812/1912 22009KT 3SM -DZ BR OVC007 FM181900 24011KT P6SM OVC015 FM182300 23010KT P6SM OVC010 FM190500 22011KT P6SM BKN020
NOTAMs
Click for the latest NOTAMs
NOTAMs are issued by the DoD/FAA and will open in a separate window not controlled by AirNav.

 

 
 

FBO, Fuel Providers, and Aircraft Ground Support

  
 Business Name 
 
 Contact 
 
 Services / Description 
 
Fuel Prices
 
Comments
  
Hardin County Airport 419-673-9542
no information available

If you are affiliated with Hardin County Airport and would like to show here your services, contact info, web link, logo, and more, click here
100LL Jet A
FS $4.75 $3.10 
 Updated 15-Dec-2017
 
   write
FS=Full service
Update Fuel Prices
 

Would you like to see your business listed on this page?

 If your business provides an interesting product or service to pilots, flight crews, aircraft, or users of the Hardin County Airport, you should consider listing it here.  To start the listing process, click on the button below
 
Add a business
 

Other Pages about Hardin County Airport

Update a link
 
Copyright © AirNav, LLC. All rights reserved. Privacy Policy  Contact